sensor_id;sensor_type;location;lat;lon;timestamp;temperature;humidity
73112;HTU21D;61301;51.956;5.876;2023-03-17T00:01:11;13.15;46.15
73112;HTU21D;61301;51.956;5.876;2023-03-17T00:03:39;13.10;46.29
73112;HTU21D;61301;51.956;5.876;2023-03-17T00:06:13;13.07;46.25
73112;HTU21D;61301;51.956;5.876;2023-03-17T00:08:41;13.07;46.37
73112;HTU21D;61301;51.956;5.876;2023-03-17T00:11:12;13.11;46.15
73112;HTU21D;61301;51.956;5.876;2023-03-17T00:13:39;13.09;46.25
73112;HTU21D;61301;51.956;5.876;2023-03-17T00:16:12;13.14;46.26
73112;HTU21D;61301;51.956;5.876;2023-03-17T00:18:40;13.11;46.15
73112;HTU21D;61301;51.956;5.876;2023-03-17T00:21:11;13.05;46.42
73112;HTU21D;61301;51.956;5.876;2023-03-17T00:23:39;12.94;46.48
73112;HTU21D;61301;51.956;5.876;2023-03-17T00:26:06;12.97;46.54
73112;HTU21D;61301;51.956;5.876;2023-03-17T00:28:34;12.91;46.69
73112;HTU21D;61301;51.956;5.876;2023-03-17T00:31:00;12.94;46.51
73112;HTU21D;61301;51.956;5.876;2023-03-17T00:33:32;12.86;46.74
73112;HTU21D;61301;51.956;5.876;2023-03-17T00:35:59;12.89;46.75
73112;HTU21D;61301;51.956;5.876;2023-03-17T00:38:26;12.88;46.84
73112;HTU21D;61301;51.956;5.876;2023-03-17T00:40:52;12.84;46.67
73112;HTU21D;61301;51.956;5.876;2023-03-17T00:43:21;12.80;46.89
73112;HTU21D;61301;51.956;5.876;2023-03-17T00:45:47;12.73;46.97
73112;HTU21D;61301;51.956;5.876;2023-03-17T00:48:17;12.75;47.10
73112;HTU21D;61301;51.956;5.876;2023-03-17T00:50:45;12.77;46.94
73112;HTU21D;61301;51.956;5.876;2023-03-17T00:53:18;12.78;46.94
73112;HTU21D;61301;51.956;5.876;2023-03-17T00:55:45;12.77;46.93
73112;HTU21D;61301;51.956;5.876;2023-03-17T01:00:50;12.74;47.05
73112;HTU21D;61301;51.956;5.876;2023-03-17T01:03:18;12.77;46.89
73112;HTU21D;61301;51.956;5.876;2023-03-17T01:05:44;12.82;46.80
73112;HTU21D;61301;51.956;5.876;2023-03-17T01:08:11;12.74;46.89
73112;HTU21D;61301;51.956;5.876;2023-03-17T01:10:40;12.70;46.78
73112;HTU21D;61301;51.956;5.876;2023-03-17T01:13:10;12.75;46.77
73112;HTU21D;61301;51.956;5.876;2023-03-17T01:15:39;12.79;46.67
73112;HTU21D;61301;51.956;5.876;2023-03-17T01:18:09;12.75;46.67
73112;HTU21D;61301;51.956;5.876;2023-03-17T01:20:37;12.78;46.60
73112;HTU21D;61301;51.956;5.876;2023-03-17T01:23:08;12.79;46.73
73112;HTU21D;61301;51.956;5.876;2023-03-17T01:25:35;12.80;46.60
73112;HTU21D;61301;51.956;5.876;2023-03-17T01:28:03;12.75;46.55
73112;HTU21D;61301;51.956;5.876;2023-03-17T01:30:33;12.77;46.57
73112;HTU21D;61301;51.956;5.876;2023-03-17T01:33:00;12.76;46.57
73112;HTU21D;61301;51.956;5.876;2023-03-17T01:35:27;12.80;46.47
73112;HTU21D;61301;51.956;5.876;2023-03-17T01:37:54;12.81;46.38
73112;HTU21D;61301;51.956;5.876;2023-03-17T01:40:25;12.85;46.38
73112;HTU21D;61301;51.956;5.876;2023-03-17T01:51:23;12.95;46.08
73112;HTU21D;61301;51.956;5.876;2023-03-17T01:53:53;12.94;46.01
73112;HTU21D;61301;51.956;5.876;2023-03-17T01:56:19;12.86;46.10
73112;HTU21D;61301;51.956;5.876;2023-03-17T01:58:49;12.84;46.12
73112;HTU21D;61301;51.956;5.876;2023-03-17T02:01:18;12.82;46.09
73112;HTU21D;61301;51.956;5.876;2023-03-17T02:03:47;12.81;46.21
73112;HTU21D;61301;51.956;5.876;2023-03-17T02:06:13;12.82;46.10
73112;HTU21D;61301;51.956;5.876;2023-03-17T02:08:39;12.84;46.08
73112;HTU21D;61301;51.956;5.876;2023-03-17T02:11:05;12.86;46.10
73112;HTU21D;61301;51.956;5.876;2023-03-17T02:13:32;12.86;46.06
73112;HTU21D;61301;51.956;5.876;2023-03-17T02:15:58;12.80;46.22
73112;HTU21D;61301;51.956;5.876;2023-03-17T02:18:24;12.80;46.22
73112;HTU21D;61301;51.956;5.876;2023-03-17T02:21:27;12.77;46.21
73112;HTU21D;61301;51.956;5.876;2023-03-17T02:23:59;12.80;46.22
73112;HTU21D;61301;51.956;5.876;2023-03-17T02:26:29;12.74;46.22
73112;HTU21D;61301;51.956;5.876;2023-03-17T02:28:56;12.74;46.38
73112;HTU21D;61301;51.956;5.876;2023-03-17T02:31:24;12.66;46.51
73112;HTU21D;61301;51.956;5.876;2023-03-17T02:33:52;12.70;46.41
73112;HTU21D;61301;51.956;5.876;2023-03-17T02:36:18;12.71;46.34
73112;HTU21D;61301;51.956;5.876;2023-03-17T02:38:45;12.72;46.31
73112;HTU21D;61301;51.956;5.876;2023-03-17T02:41:12;12.70;46.38
73112;HTU21D;61301;51.956;5.876;2023-03-17T02:43:38;12.67;46.39
73112;HTU21D;61301;51.956;5.876;2023-03-17T02:46:06;12.73;46.32
73112;HTU21D;61301;51.956;5.876;2023-03-17T02:48:33;12.69;46.35
73112;HTU21D;61301;51.956;5.876;2023-03-17T02:51:01;12.74;46.21
73112;HTU21D;61301;51.956;5.876;2023-03-17T02:53:27;12.76;46.25
73112;HTU21D;61301;51.956;5.876;2023-03-17T02:55:53;12.77;46.21
73112;HTU21D;61301;51.956;5.876;2023-03-17T02:58:19;12.75;46.20
73112;HTU21D;61301;51.956;5.876;2023-03-17T03:00:45;12.77;46.21
73112;HTU21D;61301;51.956;5.876;2023-03-17T03:03:13;12.69;46.35
73112;HTU21D;61301;51.956;5.876;2023-03-17T03:05:39;12.70;46.41
73112;HTU21D;61301;51.956;5.876;2023-03-17T03:08:09;12.67;46.36
73112;HTU21D;61301;51.956;5.876;2023-03-17T03:10:35;12.64;46.57
73112;HTU21D;61301;51.956;5.876;2023-03-17T03:13:01;12.62;46.55
73112;HTU21D;61301;51.956;5.876;2023-03-17T03:15:27;12.64;46.50
73112;HTU21D;61301;51.956;5.876;2023-03-17T03:17:53;12.58;46.54
73112;HTU21D;61301;51.956;5.876;2023-03-17T03:20:22;12.58;46.60
73112;HTU21D;61301;51.956;5.876;2023-03-17T03:22:48;12.58;46.75
73112;HTU21D;61301;51.956;5.876;2023-03-17T03:25:14;12.61;46.54
73112;HTU21D;61301;51.956;5.876;2023-03-17T03:27:40;12.57;46.63
73112;HTU21D;61301;51.956;5.876;2023-03-17T03:30:07;12.57;46.80
73112;HTU21D;61301;51.956;5.876;2023-03-17T03:32:33;12.55;46.80
73112;HTU21D;61301;51.956;5.876;2023-03-17T03:34:59;12.49;46.84
73112;HTU21D;61301;51.956;5.876;2023-03-17T03:37:25;12.51;46.79
73112;HTU21D;61301;51.956;5.876;2023-03-17T03:39:51;12.57;46.80
73112;HTU21D;61301;51.956;5.876;2023-03-17T03:42:17;12.51;46.66
73112;HTU21D;61301;51.956;5.876;2023-03-17T03:44:43;12.55;46.70
73112;HTU21D;61301;51.956;5.876;2023-03-17T03:47:09;12.58;46.70
73112;HTU21D;61301;51.956;5.876;2023-03-17T03:49:36;12.56;46.67
73112;HTU21D;61301;51.956;5.876;2023-03-17T03:52:02;12.56;46.58
73112;HTU21D;61301;51.956;5.876;2023-03-17T03:54:28;12.60;46.60
73112;HTU21D;61301;51.956;5.876;2023-03-17T03:56:54;12.63;46.51
73112;HTU21D;61301;51.956;5.876;2023-03-17T03:59:20;12.62;46.38
73112;HTU21D;61301;51.956;5.876;2023-03-17T04:01:46;12.65;46.35
73112;HTU21D;61301;51.956;5.876;2023-03-17T04:04:12;12.65;46.35
73112;HTU21D;61301;51.956;5.876;2023-03-17T04:06:38;12.61;46.48
73112;HTU21D;61301;51.956;5.876;2023-03-17T04:09:04;12.61;46.51
73112;HTU21D;61301;51.956;5.876;2023-03-17T04:11:33;12.58;46.65
73112;HTU21D;61301;51.956;5.876;2023-03-17T04:13:59;12.49;46.86
73112;HTU21D;61301;51.956;5.876;2023-03-17T04:16:25;12.50;46.95
73112;HTU21D;61301;51.956;5.876;2023-03-17T04:18:51;12.52;46.87
73112;HTU21D;61301;51.956;5.876;2023-03-17T04:21:17;12.51;46.71
73112;HTU21D;61301;51.956;5.876;2023-03-17T04:23:45;12.45;46.96
73112;HTU21D;61301;51.956;5.876;2023-03-17T04:26:11;12.41;46.96
73112;HTU21D;61301;51.956;5.876;2023-03-17T04:28:38;12.37;47.06
73112;HTU21D;61301;51.956;5.876;2023-03-17T04:31:04;12.40;47.10
73112;HTU21D;61301;51.956;5.876;2023-03-17T04:33:31;12.36;47.20
73112;HTU21D;61301;51.956;5.876;2023-03-17T04:35:57;12.37;47.09
73112;HTU21D;61301;51.956;5.876;2023-03-17T04:38:23;12.38;47.12
73112;HTU21D;61301;51.956;5.876;2023-03-17T04:40:49;12.40;46.92
73112;HTU21D;61301;51.956;5.876;2023-03-17T04:43:19;12.50;46.84
73112;HTU21D;61301;51.956;5.876;2023-03-17T04:45:45;12.50;46.73
73112;HTU21D;61301;51.956;5.876;2023-03-17T04:48:11;12.51;46.69
73112;HTU21D;61301;51.956;5.876;2023-03-17T04:50:37;12.53;46.66
73112;HTU21D;61301;51.956;5.876;2023-03-17T04:53:03;12.52;46.76
73112;HTU21D;61301;51.956;5.876;2023-03-17T04:55:29;12.52;46.69
73112;HTU21D;61301;51.956;5.876;2023-03-17T04:57:56;12.51;46.72
73112;HTU21D;61301;51.956;5.876;2023-03-17T05:00:22;12.51;46.63
73112;HTU21D;61301;51.956;5.876;2023-03-17T05:02:48;12.50;46.62
73112;HTU21D;61301;51.956;5.876;2023-03-17T05:05:13;12.51;46.84
73112;HTU21D;61301;51.956;5.876;2023-03-17T05:07:40;12.47;46.84
73112;HTU21D;61301;51.956;5.876;2023-03-17T05:10:06;12.43;46.97
73112;HTU21D;61301;51.956;5.876;2023-03-17T05:12:33;12.37;47.02
73112;HTU21D;61301;51.956;5.876;2023-03-17T05:14:59;12.36;47.07
73112;HTU21D;61301;51.956;5.876;2023-03-17T05:17:25;12.32;47.22
73112;HTU21D;61301;51.956;5.876;2023-03-17T05:19:51;12.31;47.35
73112;HTU21D;61301;51.956;5.876;2023-03-17T05:22:17;12.30;47.38
73112;HTU21D;61301;51.956;5.876;2023-03-17T05:24:43;12.33;47.28
73112;HTU21D;61301;51.956;5.876;2023-03-17T05:27:09;12.33;47.24
73112;HTU21D;61301;51.956;5.876;2023-03-17T05:29:38;12.37;47.21
73112;HTU21D;61301;51.956;5.876;2023-03-17T05:32:04;12.33;47.25
73112;HTU21D;61301;51.956;5.876;2023-03-17T05:34:30;12.33;47.31
73112;HTU21D;61301;51.956;5.876;2023-03-17T05:36:56;12.30;47.37
73112;HTU21D;61301;51.956;5.876;2023-03-17T05:39:22;12.26;47.40
73112;HTU21D;61301;51.956;5.876;2023-03-17T05:41:48;12.30;47.31
73112;HTU21D;61301;51.956;5.876;2023-03-17T05:44:15;12.27;47.33
73112;HTU21D;61301;51.956;5.876;2023-03-17T05:46:41;12.26;47.50
73112;HTU21D;61301;51.956;5.876;2023-03-17T05:49:07;12.15;47.82
73112;HTU21D;61301;51.956;5.876;2023-03-17T05:51:33;12.13;47.87
73112;HTU21D;61301;51.956;5.876;2023-03-17T05:54:00;12.11;47.90
73112;HTU21D;61301;51.956;5.876;2023-03-17T05:56:26;12.14;47.81
73112;HTU21D;61301;51.956;5.876;2023-03-17T05:58:59;12.15;47.81
73112;HTU21D;61301;51.956;5.876;2023-03-17T06:01:26;12.15;47.81
73112;HTU21D;61301;51.956;5.876;2023-03-17T06:03:52;12.14;47.81
73112;HTU21D;61301;51.956;5.876;2023-03-17T06:06:19;12.17;47.85
73112;HTU21D;61301;51.956;5.876;2023-03-17T06:08:44;12.18;47.80
73112;HTU21D;61301;51.956;5.876;2023-03-17T06:11:10;12.18;47.70
73112;HTU21D;61301;51.956;5.876;2023-03-17T06:13:36;12.15;48.02
73112;HTU21D;61301;51.956;5.876;2023-03-17T06:16:02;12.17;47.98
73112;HTU21D;61301;51.956;5.876;2023-03-17T06:18:28;12.14;48.03
73112;HTU21D;61301;51.956;5.876;2023-03-17T06:20:54;12.17;48.04
73112;HTU21D;61301;51.956;5.876;2023-03-17T06:23:23;12.13;48.28
73112;HTU21D;61301;51.956;5.876;2023-03-17T06:25:50;12.17;48.21
73112;HTU21D;61301;51.956;5.876;2023-03-17T06:28:16;12.12;48.29
73112;HTU21D;61301;51.956;5.876;2023-03-17T06:30:43;12.15;48.26
73112;HTU21D;61301;51.956;5.876;2023-03-17T06:33:09;12.19;48.10
73112;HTU21D;61301;51.956;5.876;2023-03-17T06:35:35;12.25;48.04
73112;HTU21D;61301;51.956;5.876;2023-03-17T06:38:01;12.23;48.12
73112;HTU21D;61301;51.956;5.876;2023-03-17T06:40:28;12.21;48.10
73112;HTU21D;61301;51.956;5.876;2023-03-17T06:42:54;12.16;48.26
73112;HTU21D;61301;51.956;5.876;2023-03-17T06:45:27;12.25;48.19
73112;HTU21D;61301;51.956;5.876;2023-03-17T06:47:53;12.22;48.21
73112;HTU21D;61301;51.956;5.876;2023-03-17T06:50:19;12.25;48.21
73112;HTU21D;61301;51.956;5.876;2023-03-17T06:52:49;12.28;48.24
73112;HTU21D;61301;51.956;5.876;2023-03-17T06:55:15;12.26;48.41
73112;HTU21D;61301;51.956;5.876;2023-03-17T06:57:42;12.27;48.24
73112;HTU21D;61301;51.956;5.876;2023-03-17T07:00:08;12.29;48.17
73112;HTU21D;61301;51.956;5.876;2023-03-17T07:02:37;12.40;48.01
73112;HTU21D;61301;51.956;5.876;2023-03-17T07:05:03;12.45;47.95
73112;HTU21D;61301;51.956;5.876;2023-03-17T07:07:31;12.47;47.96
73112;HTU21D;61301;51.956;5.876;2023-03-17T07:09:57;12.57;47.82
73112;HTU21D;61301;51.956;5.876;2023-03-17T07:12:24;12.63;47.82
73112;HTU21D;61301;51.956;5.876;2023-03-17T07:14:50;12.66;47.80
73112;HTU21D;61301;51.956;5.876;2023-03-17T07:17:16;12.75;47.63
73112;HTU21D;61301;51.956;5.876;2023-03-17T07:19:44;12.82;47.56
73112;HTU21D;61301;51.956;5.876;2023-03-17T07:22:11;12.86;47.50
73112;HTU21D;61301;51.956;5.876;2023-03-17T07:24:37;12.91;47.47
73112;HTU21D;61301;51.956;5.876;2023-03-17T07:27:03;12.93;47.47
73112;HTU21D;61301;51.956;5.876;2023-03-17T07:29:29;12.99;47.53
73112;HTU21D;61301;51.956;5.876;2023-03-17T07:31:57;13.03;47.48
73112;HTU21D;61301;51.956;5.876;2023-03-17T07:34:23;13.11;47.07
73112;HTU21D;61301;51.956;5.876;2023-03-17T07:36:49;13.16;47.11
73112;HTU21D;61301;51.956;5.876;2023-03-17T07:39:15;13.35;46.84
73112;HTU21D;61301;51.956;5.876;2023-03-17T07:41:41;13.47;46.55
73112;HTU21D;61301;51.956;5.876;2023-03-17T07:44:09;13.60;46.50
73112;HTU21D;61301;51.956;5.876;2023-03-17T07:46:36;13.68;46.21
73112;HTU21D;61301;51.956;5.876;2023-03-17T07:49:03;13.77;46.28
73112;HTU21D;61301;51.956;5.876;2023-03-17T07:51:29;13.90;46.09
73112;HTU21D;61301;51.956;5.876;2023-03-17T07:53:55;13.97;45.22
73112;HTU21D;61301;51.956;5.876;2023-03-17T07:56:31;13.99;45.04
73112;HTU21D;61301;51.956;5.876;2023-03-17T07:58:57;14.05;45.33
73112;HTU21D;61301;51.956;5.876;2023-03-17T08:01:25;14.11;45.32
73112;HTU21D;61301;51.956;5.876;2023-03-17T08:03:51;14.21;45.26
73112;HTU21D;61301;51.956;5.876;2023-03-17T08:06:17;14.33;44.96
73112;HTU21D;61301;51.956;5.876;2023-03-17T08:08:44;14.41;44.80
73112;HTU21D;61301;51.956;5.876;2023-03-17T08:11:10;14.48;44.77
73112;HTU21D;61301;51.956;5.876;2023-03-17T08:13:37;14.54;44.58
73112;HTU21D;61301;51.956;5.876;2023-03-17T08:16:03;14.55;44.43
73112;HTU21D;61301;51.956;5.876;2023-03-17T08:18:29;14.68;44.35
73112;HTU21D;61301;51.956;5.876;2023-03-17T08:20:55;14.81;44.30
73112;HTU21D;61301;51.956;5.876;2023-03-17T08:23:21;14.89;43.71
73112;HTU21D;61301;51.956;5.876;2023-03-17T08:25:47;14.87;43.73
73112;HTU21D;61301;51.956;5.876;2023-03-17T08:28:14;14.88;43.40
73112;HTU21D;61301;51.956;5.876;2023-03-17T08:30:42;15.01;43.58
73112;HTU21D;61301;51.956;5.876;2023-03-17T08:33:09;15.15;43.61
73112;HTU21D;61301;51.956;5.876;2023-03-17T08:35:35;15.23;43.37
73112;HTU21D;61301;51.956;5.876;2023-03-17T08:38:02;15.34;43.55
73112;HTU21D;61301;51.956;5.876;2023-03-17T08:40:28;15.48;42.84
73112;HTU21D;61301;51.956;5.876;2023-03-17T08:42:54;15.59;43.03
73112;HTU21D;61301;51.956;5.876;2023-03-17T08:45:20;15.70;42.55
73112;HTU21D;61301;51.956;5.876;2023-03-17T08:47:47;15.87;42.54
73112;HTU21D;61301;51.956;5.876;2023-03-17T08:50:19;15.98;42.42
73112;HTU21D;61301;51.956;5.876;2023-03-17T08:52:45;16.11;42.29
73112;HTU21D;61301;51.956;5.876;2023-03-17T08:55:14;16.26;42.32
73112;HTU21D;61301;51.956;5.876;2023-03-17T08:57:41;16.36;41.99
73112;HTU21D;61301;51.956;5.876;2023-03-17T09:00:11;16.40;41.45
73112;HTU21D;61301;51.956;5.876;2023-03-17T09:02:39;16.34;41.81
73112;HTU21D;61301;51.956;5.876;2023-03-17T09:05:10;16.45;41.78
73112;HTU21D;61301;51.956;5.876;2023-03-17T09:07:36;16.56;41.93
73112;HTU21D;61301;51.956;5.876;2023-03-17T09:10:04;16.62;41.36
73112;HTU21D;61301;51.956;5.876;2023-03-17T09:12:30;16.75;40.76
73112;HTU21D;61301;51.956;5.876;2023-03-17T09:14:56;16.76;40.53
73112;HTU21D;61301;51.956;5.876;2023-03-17T09:17:22;16.79;40.51
73112;HTU21D;61301;51.956;5.876;2023-03-17T09:19:48;16.92;40.20
73112;HTU21D;61301;51.956;5.876;2023-03-17T09:22:16;16.93;40.26
73112;HTU21D;61301;51.956;5.876;2023-03-17T09:24:44;17.10;39.97
73112;HTU21D;61301;51.956;5.876;2023-03-17T09:27:12;17.09;39.19
73112;HTU21D;61301;51.956;5.876;2023-03-17T09:29:38;17.18;38.78
73112;HTU21D;61301;51.956;5.876;2023-03-17T09:32:04;17.28;39.35
73112;HTU21D;61301;51.956;5.876;2023-03-17T09:34:30;17.26;39.59
73112;HTU21D;61301;51.956;5.876;2023-03-17T09:36:56;17.18;39.41
73112;HTU21D;61301;51.956;5.876;2023-03-17T09:39:24;17.06;38.78
73112;HTU21D;61301;51.956;5.876;2023-03-17T09:45:10;17.10;40.50
73112;HTU21D;61301;51.956;5.876;2023-03-17T09:47:59;17.17;39.44
73112;HTU21D;61301;51.956;5.876;2023-03-17T09:50:53;17.25;39.14
73112;HTU21D;61301;51.956;5.876;2023-03-17T09:56:16;17.60;39.39
73112;HTU21D;61301;51.956;5.876;2023-03-17T09:58:56;17.65;38.50
73112;HTU21D;61301;51.956;5.876;2023-03-17T10:01:23;17.77;38.04
73112;HTU21D;61301;51.956;5.876;2023-03-17T10:03:49;17.78;38.07
73112;HTU21D;61301;51.956;5.876;2023-03-17T10:06:35;17.89;38.52
73112;HTU21D;61301;51.956;5.876;2023-03-17T10:11:41;18.22;38.06
73112;HTU21D;61301;51.956;5.876;2023-03-17T10:14:32;18.27;37.01
73112;HTU21D;61301;51.956;5.876;2023-03-17T10:17:02;18.35;37.40
73112;HTU21D;61301;51.956;5.876;2023-03-17T10:22:04;18.44;37.79
73112;HTU21D;61301;51.956;5.876;2023-03-17T10:24:32;18.42;36.66
73112;HTU21D;61301;51.956;5.876;2023-03-17T10:27:06;18.43;37.40
73112;HTU21D;61301;51.956;5.876;2023-03-17T10:29:32;18.74;36.92
73112;HTU21D;61301;51.956;5.876;2023-03-17T10:31:58;18.95;37.16
73112;HTU21D;61301;51.956;5.876;2023-03-17T10:34:30;19.03;36.27
73112;HTU21D;61301;51.956;5.876;2023-03-17T10:37:13;19.15;36.52
73112;HTU21D;61301;51.956;5.876;2023-03-17T10:39:52;19.05;36.15
73112;HTU21D;61301;51.956;5.876;2023-03-17T10:42:25;18.81;36.60
73112;HTU21D;61301;51.956;5.876;2023-03-17T10:45:06;18.66;36.78
73112;HTU21D;61301;51.956;5.876;2023-03-17T10:47:43;18.50;37.88
73112;HTU21D;61301;51.956;5.876;2023-03-17T10:50:26;18.50;37.99
73112;HTU21D;61301;51.956;5.876;2023-03-17T10:55:49;18.83;37.46
73112;HTU21D;61301;51.956;5.876;2023-03-17T10:58:19;18.92;37.85
73112;HTU21D;61301;51.956;5.876;2023-03-17T11:00:58;18.97;37.48
73112;HTU21D;61301;51.956;5.876;2023-03-17T11:03:31;18.98;37.21
73112;HTU21D;61301;51.956;5.876;2023-03-17T11:08:31;19.02;37.60
73112;HTU21D;61301;51.956;5.876;2023-03-17T11:10:57;19.22;37.73
73112;HTU21D;61301;51.956;5.876;2023-03-17T11:13:28;19.42;37.34
73112;HTU21D;61301;51.956;5.876;2023-03-17T11:16:05;19.37;37.40
73112;HTU21D;61301;51.956;5.876;2023-03-17T11:18:36;19.25;36.97
73112;HTU21D;61301;51.956;5.876;2023-03-17T11:21:26;19.25;37.59
73112;HTU21D;61301;51.956;5.876;2023-03-17T11:24:31;19.24;37.88
73112;HTU21D;61301;51.956;5.876;2023-03-17T11:27:16;19.21;37.63
73112;HTU21D;61301;51.956;5.876;2023-03-17T11:43:32;19.41;37.92
73112;HTU21D;61301;51.956;5.876;2023-03-17T11:46:10;19.55;38.15
73112;HTU21D;61301;51.956;5.876;2023-03-17T11:52:06;20.17;37.43
73112;HTU21D;61301;51.956;5.876;2023-03-17T11:57:15;20.65;36.21
73112;HTU21D;61301;51.956;5.876;2023-03-17T12:00:17;20.81;36.06
73112;HTU21D;61301;51.956;5.876;2023-03-17T12:02:47;20.63;35.83
73112;HTU21D;61301;51.956;5.876;2023-03-17T12:05:21;20.54;35.72
73112;HTU21D;61301;51.956;5.876;2023-03-17T12:10:41;20.71;36.02
73112;HTU21D;61301;51.956;5.876;2023-03-17T12:13:17;20.59;35.92
73112;HTU21D;61301;51.956;5.876;2023-03-17T12:15:48;20.55;36.32
73112;HTU21D;61301;51.956;5.876;2023-03-17T12:29:45;21.17;35.37
73112;HTU21D;61301;51.956;5.876;2023-03-17T12:32:34;21.24;35.64
73112;HTU21D;61301;51.956;5.876;2023-03-17T12:35:18;21.31;34.76
73112;HTU21D;61301;51.956;5.876;2023-03-17T12:37:48;21.25;34.41
73112;HTU21D;61301;51.956;5.876;2023-03-17T12:40:18;21.17;34.92
73112;HTU21D;61301;51.956;5.876;2023-03-17T12:48:48;20.96;35.58
73112;HTU21D;61301;51.956;5.876;2023-03-17T12:53:54;21.06;34.92
73112;HTU21D;61301;51.956;5.876;2023-03-17T12:56:21;21.16;35.18
73112;HTU21D;61301;51.956;5.876;2023-03-17T12:58:51;21.17;35.42
73112;HTU21D;61301;51.956;5.876;2023-03-17T13:01:31;21.44;35.47
73112;HTU21D;61301;51.956;5.876;2023-03-17T13:04:08;21.65;34.72
73112;HTU21D;61301;51.956;5.876;2023-03-17T13:12:01;21.77;34.15
73112;HTU21D;61301;51.956;5.876;2023-03-17T13:14:45;21.63;34.47
73112;HTU21D;61301;51.956;5.876;2023-03-17T13:22:38;22.03;34.42
73112;HTU21D;61301;51.956;5.876;2023-03-17T13:40:47;22.53;33.05
73112;HTU21D;61301;51.956;5.876;2023-03-17T13:52:12;22.25;33.94
73112;HTU21D;61301;51.956;5.876;2023-03-17T13:54:49;22.37;33.99
73112;HTU21D;61301;51.956;5.876;2023-03-17T13:57:35;22.24;33.37
73112;HTU21D;61301;51.956;5.876;2023-03-17T14:02:39;22.44;33.62
73112;HTU21D;61301;51.956;5.876;2023-03-17T14:05:22;22.56;33.47
73112;HTU21D;61301;51.956;5.876;2023-03-17T14:07:59;22.72;33.83
73112;HTU21D;61301;51.956;5.876;2023-03-17T14:10:29;22.62;33.25
73112;HTU21D;61301;51.956;5.876;2023-03-17T14:12:57;22.73;32.92
73112;HTU21D;61301;51.956;5.876;2023-03-17T14:18:18;22.88;33.49
73112;HTU21D;61301;51.956;5.876;2023-03-17T14:20:57;23.09;32.83
73112;HTU21D;61301;51.956;5.876;2023-03-17T14:23:24;23.21;33.08
73112;HTU21D;61301;51.956;5.876;2023-03-17T14:25:50;23.31;33.17
73112;HTU21D;61301;51.956;5.876;2023-03-17T14:28:24;23.46;32.47
73112;HTU21D;61301;51.956;5.876;2023-03-17T14:31:06;23.27;32.21
73112;HTU21D;61301;51.956;5.876;2023-03-17T14:33:36;23.23;32.36
73112;HTU21D;61301;51.956;5.876;2023-03-17T14:36:06;23.22;32.77
73112;HTU21D;61301;51.956;5.876;2023-03-17T14:38:35;23.34;33.24
73112;HTU21D;61301;51.956;5.876;2023-03-17T14:43:40;23.26;32.89
73112;HTU21D;61301;51.956;5.876;2023-03-17T14:46:16;23.25;32.67
73112;HTU21D;61301;51.956;5.876;2023-03-17T14:48:48;23.22;32.92
73112;HTU21D;61301;51.956;5.876;2023-03-17T14:53:44;23.37;32.65
73112;HTU21D;61301;51.956;5.876;2023-03-17T14:56:11;23.35;32.80
73112;HTU21D;61301;51.956;5.876;2023-03-17T14:58:42;23.28;33.19
73112;HTU21D;61301;51.956;5.876;2023-03-17T15:01:16;23.16;33.29
73112;HTU21D;61301;51.956;5.876;2023-03-17T15:03:53;23.09;33.09
73112;HTU21D;61301;51.956;5.876;2023-03-17T15:06:28;22.95;33.34
73112;HTU21D;61301;51.956;5.876;2023-03-17T15:09:04;22.83;33.81
73112;HTU21D;61301;51.956;5.876;2023-03-17T15:11:43;22.85;34.01
73112;HTU21D;61301;51.956;5.876;2023-03-17T15:17:03;22.93;34.34
73112;HTU21D;61301;51.956;5.876;2023-03-17T15:19:37;22.93;34.44
73112;HTU21D;61301;51.956;5.876;2023-03-17T15:22:31;22.95;34.34
73112;HTU21D;61301;51.956;5.876;2023-03-17T15:24:58;22.83;34.58
73112;HTU21D;61301;51.956;5.876;2023-03-17T15:27:25;22.81;34.70
73112;HTU21D;61301;51.956;5.876;2023-03-17T15:29:52;22.79;34.89
73112;HTU21D;61301;51.956;5.876;2023-03-17T15:32:22;22.78;35.08
73112;HTU21D;61301;51.956;5.876;2023-03-17T15:34:51;22.69;35.47
73112;HTU21D;61301;51.956;5.876;2023-03-17T15:37:25;22.62;35.80
73112;HTU21D;61301;51.956;5.876;2023-03-17T15:39:53;22.62;35.93
73112;HTU21D;61301;51.956;5.876;2023-03-17T15:42:23;22.54;36.08
73112;HTU21D;61301;51.956;5.876;2023-03-17T15:44:50;22.44;36.21
73112;HTU21D;61301;51.956;5.876;2023-03-17T15:47:18;22.40;36.35
73112;HTU21D;61301;51.956;5.876;2023-03-17T15:49:46;22.35;36.56
73112;HTU21D;61301;51.956;5.876;2023-03-17T15:52:19;22.36;36.56
73112;HTU21D;61301;51.956;5.876;2023-03-17T15:54:56;22.28;36.72
73112;HTU21D;61301;51.956;5.876;2023-03-17T15:57:23;22.28;36.76
73112;HTU21D;61301;51.956;5.876;2023-03-17T15:59:49;22.25;36.85
73112;HTU21D;61301;51.956;5.876;2023-03-17T16:02:31;22.23;36.88
73112;HTU21D;61301;51.956;5.876;2023-03-17T16:04:59;22.16;37.10
73112;HTU21D;61301;51.956;5.876;2023-03-17T16:07:27;22.10;37.34
73112;HTU21D;61301;51.956;5.876;2023-03-17T16:09:53;22.08;37.37
73112;HTU21D;61301;51.956;5.876;2023-03-17T16:12:19;22.14;37.12
73112;HTU21D;61301;51.956;5.876;2023-03-17T16:14:46;22.01;37.15
73112;HTU21D;61301;51.956;5.876;2023-03-17T16:17:20;21.89;37.29
73112;HTU21D;61301;51.956;5.876;2023-03-17T16:19:48;21.88;37.27
73112;HTU21D;61301;51.956;5.876;2023-03-17T16:22:41;21.99;37.05
73112;HTU21D;61301;51.956;5.876;2023-03-17T16:25:29;21.94;37.24
73112;HTU21D;61301;51.956;5.876;2023-03-17T16:27:57;22.01;37.12
73112;HTU21D;61301;51.956;5.876;2023-03-17T16:30:27;21.90;37.15
73112;HTU21D;61301;51.956;5.876;2023-03-17T16:33:02;21.88;37.22
73112;HTU21D;61301;51.956;5.876;2023-03-17T16:35:28;21.91;37.27
73112;HTU21D;61301;51.956;5.876;2023-03-17T16:37:54;21.91;37.39
73112;HTU21D;61301;51.956;5.876;2023-03-17T16:40:22;21.89;37.53
73112;HTU21D;61301;51.956;5.876;2023-03-17T16:42:49;21.79;37.78
73112;HTU21D;61301;51.956;5.876;2023-03-17T16:45:30;21.80;37.92
73112;HTU21D;61301;51.956;5.876;2023-03-17T16:47:59;21.70;38.12
73112;HTU21D;61301;51.956;5.876;2023-03-17T16:50:27;21.69;38.10
73112;HTU21D;61301;51.956;5.876;2023-03-17T16:52:54;21.65;38.40
73112;HTU21D;61301;51.956;5.876;2023-03-17T16:55:20;21.63;38.58
73112;HTU21D;61301;51.956;5.876;2023-03-17T16:57:49;21.57;38.62
73112;HTU21D;61301;51.956;5.876;2023-03-17T17:00:25;21.55;38.66
73112;HTU21D;61301;51.956;5.876;2023-03-17T17:02:52;21.50;38.99
73112;HTU21D;61301;51.956;5.876;2023-03-17T17:05:21;21.44;39.14
73112;HTU21D;61301;51.956;5.876;2023-03-17T17:07:48;21.36;39.29
73112;HTU21D;61301;51.956;5.876;2023-03-17T17:10:17;21.35;39.33
73112;HTU21D;61301;51.956;5.876;2023-03-17T17:12:43;21.25;39.60
73112;HTU21D;61301;51.956;5.876;2023-03-17T17:15:10;21.14;39.96
73112;HTU21D;61301;51.956;5.876;2023-03-17T17:17:38;21.04;40.11
73112;HTU21D;61301;51.956;5.876;2023-03-17T17:20:20;21.03;40.41
73112;HTU21D;61301;51.956;5.876;2023-03-17T17:22:47;20.94;40.35
73112;HTU21D;61301;51.956;5.876;2023-03-17T17:25:14;20.95;40.30
73112;HTU21D;61301;51.956;5.876;2023-03-17T17:27:41;20.94;40.58